Flight Track Log - Related Links

Times and Time Zones

All times are in EDT time to prevent confusion due to time zone crossing. See the N895SC flight status page for this flight to view local times or setup timezone preferences in your user account.

Time Position Orientation Groundspeed Altitude Reporting Facility
EDT Latitude Longitude Course Direction KTS MPH feet Rate Location/Type
Thu 11:53:45 PM 28.5500 -81.3333 180° South 99 114 400  Level Orlando TRACON
Thu 11:54:45 PM 28.5333 -81.3667 240° Southwest 112 129 1,200 800 Climbing Orlando TRACON
Thu 11:54:45 PM 28.5333 -81.3667 240° Southwest 112 129 1,200 787 Level Orlando TRACON
Thu 11:55:46 PM 28.5167 -81.4000 240° Southwest 112 129 2,000 787 Climbing Orlando TRACON
Thu 11:55:46 PM 28.5167 -81.4000 240° Southwest 112 129 2,000 900 Level Orlando TRACON
Thu 11:56:46 PM 28.5167 -81.4333 270° West 112 129 2,900 900 Climbing Orlando TRACON
Thu 11:56:46 PM 28.5167 -81.4333 270° West 112 129 2,900 900 Level Orlando TRACON
Thu 11:57:46 PM 28.4833 -81.4667 221° Southwest 125 144 3,800 900 Climbing Orlando TRACON
Thu 11:57:46 PM 28.4833 -81.4667 221° Southwest 125 144 3,800 1,000 Level Orlando TRACON
Thu 11:58:46 PM 28.4500 -81.4833 204° Southwest 122 140 4,800 1,000 Climbing Orlando TRACON
Thu 11:58:46 PM 28.4500 -81.4833 204° Southwest 122 140 4,800 800 Level Orlando TRACON
Thu 11:59:00 PM 28.3015 -81.3833 180° South  Level FlightAware Approximate
Thu 11:59:46 PM 28.4167 -81.5000 204° Southwest 125 144 5,600  Level Orlando TRACON
Fri 12:00:46 AM 28.3833 -81.5000 180° South 148 170 6,000 250 Climbing Orlando TRACON
Fri 12:01:46 AM 28.3333 -81.5167 196° South 178 205 6,100 50 Climbing Orlando TRACON
Fri 12:02:46 AM 28.3000 -81.5333 204° Southwest 180 207 6,100 -50 Level Orlando TRACON
Fri 12:03:46 AM 28.2500 -81.5500 196° South 181 208 6,000 -50 Descending Orlando TRACON
Fri 12:04:46 AM 28.2000 -81.5500 180° South 174 200 6,000  Level Orlando TRACON
Fri 12:05:46 AM 28.1500 -81.5667 196° South 173 199 6,000  Level Orlando TRACON
Fri 12:06:25 AM 28.1167 -81.5764 194° South 172 198 6,000  Level Miami Center
Fri 12:07:25 AM 28.0747 -81.5839 189° South 167 192 6,000 51 Level Miami Center
Fri 12:08:22 AM 28.0286 -81.5914 188° South 167 192 6,100  Climbing Miami Center
Fri 12:09:23 AM 27.9783 -81.5964 185° South 167 192 6,000  Descending Miami Center
Fri 12:10:25 AM 27.9322 -81.6061 191° South 167 192 6,100 350 Climbing Miami Center
Fri 12:11:23 AM 27.8903 -81.6139 189° South 167 192 6,700 508 Climbing Miami Center
Fri 12:12:23 AM 27.8481 -81.6214 189° South 161 185 7,100 197 Climbing Miami Center
Fri 12:13:25 AM 27.8003 -81.6194 178° South 161 185 7,100 -49 Level Miami Center
Fri 12:14:25 AM 27.7503 -81.6197 180° South 171 197 7,000 -51 Descending Miami Center
Fri 12:15:22 AM 27.7019 -81.6294 190° South 181 208 7,000  Level Miami Center
Fri 12:16:23 AM 27.6536 -81.6367 188° South 181 208 7,000 50 Level Miami Center
Fri 12:17:22 AM 27.6053 -81.6442 188° South 181 208 7,100 50 Climbing Miami Center
Fri 12:18:23 AM 27.5553 -81.6467 183° South 181 208 7,100  Level Miami Center
Fri 12:19:24 AM 27.5050 -81.6469 180° South 181 208 7,100 -50 Level Miami Center
Fri 12:20:24 AM 27.4569 -81.6519 185° South 181 208 7,000  Descending Miami Center
Fri 12:21:22 AM 27.4131 -81.6547 183° South 181 208 7,100 51 Climbing Miami Center
Fri 12:22:22 AM 27.3628 -81.6550 180° South 181 208 7,100 -50 Level Miami Center
Fri 12:23:23 AM 27.3147 -81.6600 185° South 181 208 7,000 -49 Descending Miami Center
Fri 12:24:24 AM 27.2644 -81.6650 185° South 181 208 7,000 -50 Level Miami Center
Fri 12:25:24 AM 27.2142 -81.6722 187° South 181 208 6,900  Descending Miami Center
Fri 12:26:22 AM 27.1658 -81.6772 185° South 181 208 7,000 50 Climbing Miami Center
Fri 12:27:23 AM 27.1156 -81.6844 187° South 181 208 7,000  Level Miami Center
Fri 12:28:23 AM 27.0672 -81.6917 188° South 181 208 7,000  Level Miami Center
Fri 12:29:22 AM 27.0172 -81.6967 185° South 181 208 7,000  Level Miami Center
Fri 12:30:22 AM 26.9689 -81.7042 188° South 181 208 7,000 50 Level Miami Center
Fri 12:31:22 AM 26.9186 -81.7067 183° South 181 208 7,100 50 Climbing Miami Center
Fri 12:32:23 AM 26.8683 -81.7114 185° South 181 208 7,100 50 Level Miami Center
Fri 12:33:23 AM 26.8181 -81.7211 190° South 181 208 7,200 50 Climbing Miami Center
Fri 12:34:23 AM 26.7697 -81.7261 185° South 181 208 7,200  Level Miami Center
Fri 12:35:22 AM 26.7175 -81.7286 182° South 181 208 7,200 -50 Level Miami Center
Fri 12:36:22 AM 26.6653 -81.7286 180° South 181 208 7,100 -100 Descending Miami Center
Fri 12:37:22 AM 26.6175 -81.7244 176° South 181 208 7,000 -50 Descending Miami Center
Fri 12:38:22 AM 26.5650 -81.7339 189° South 181 208 7,000  Level Miami Center
Fri 12:39:22 AM 26.5186 -81.7436 191° South 181 208 7,000 50 Level Miami Center
Fri 12:40:22 AM 26.4744 -81.7508 188° South 181 208 7,100 -50 Climbing Miami Center
Fri 12:41:22 AM 26.4303 -81.7608 191° South 176 203 6,900 -347 Descending Miami Center
Fri 12:42:23 AM 26.3819 -81.7750 195° South 176 203 6,400 -492 Descending Miami Center

Login

Don't have an account? Register now (free) for customized features, flight alerts, and more!